createdAt,value
2022-08-01T00:01:53.440Z,0.98
2022-08-01T00:04:58.942Z,1.00
2022-08-01T00:08:02.151Z,1.00
2022-08-01T00:11:05.167Z,1.12
2022-08-01T00:14:07.797Z,0.88
2022-08-01T00:17:12.905Z,1.00
2022-08-01T00:20:17.985Z,1.12
2022-08-01T00:23:21.943Z,0.90
2022-08-01T00:26:26.764Z,1.12
2022-08-01T00:30:12.271Z,0.98
2022-08-01T00:32:56.094Z,0.90
2022-08-01T00:35:59.477Z,1.17
2022-08-01T00:39:05.536Z,1.05
2022-08-01T00:42:13.198Z,1.08
2022-08-01T00:45:18.172Z,1.00
2022-08-01T00:48:23.856Z,1.12
2022-08-01T00:51:27.610Z,1.42
2022-08-01T00:54:33.476Z,1.00
2022-08-01T00:58:01.633Z,0.90
2022-08-01T01:01:00.387Z,1.10
2022-08-01T01:04:08.858Z,0.90
2022-08-01T01:10:48.666Z,0.85
2022-08-01T01:14:01.088Z,1.07
2022-08-01T01:17:07.548Z,1.20
2022-08-01T01:20:16.571Z,1.08
2022-08-01T01:24:01.921Z,1.37
2022-08-01T01:27:19.267Z,1.17
2022-08-01T01:30:27.185Z,1.48
2022-08-01T01:33:37.380Z,1.20
2022-08-01T01:36:58.144Z,1.37
2022-08-01T01:40:03.890Z,1.12
2022-08-01T01:43:10.761Z,1.15
2022-08-01T01:46:20.072Z,1.35
2022-08-01T01:49:26.470Z,1.20
2022-08-01T01:52:32.487Z,1.50
2022-08-01T01:55:49.473Z,1.10
2022-08-01T01:59:00.487Z,1.30
2022-08-01T02:02:06.916Z,1.75
2022-08-01T02:05:11.654Z,1.45
2022-08-01T02:11:23.992Z,1.12
2022-08-01T02:14:30.435Z,1.60
2022-08-01T02:17:40.857Z,1.37
2022-08-01T02:20:53.081Z,1.35
2022-08-01T02:24:05.959Z,1.70
2022-08-01T02:27:13.993Z,1.37
2022-08-01T02:30:18.070Z,1.40
2022-08-01T02:33:28.013Z,1.10
2022-08-01T02:36:34.476Z,1.30
2022-08-01T02:39:41.131Z,1.40
2022-08-01T02:42:50.590Z,1.65
2022-08-01T02:46:02.388Z,1.52
2022-08-01T02:49:09.119Z,1.48
2022-08-01T02:52:15.285Z,1.10
2022-08-01T02:55:24.803Z,1.30
2022-08-01T02:58:30.469Z,1.17
2022-08-01T03:01:38.985Z,1.20
2022-08-01T03:04:55.156Z,1.60
2022-08-01T03:08:03.902Z,1.30
2022-08-01T03:11:10.117Z,1.60
2022-08-01T03:14:15.542Z,1.37
2022-08-01T03:20:28.697Z,1.50
2022-08-01T03:23:38.630Z,1.55
2022-08-01T03:26:42.740Z,1.45
2022-08-01T03:29:47.417Z,1.17
2022-08-01T03:32:52.520Z,1.02
2022-08-01T03:35:59.103Z,1.40
2022-08-01T03:39:04.560Z,1.35
2022-08-01T03:42:15.267Z,1.55
2022-08-01T03:45:28.369Z,1.40
2022-08-01T03:48:37.787Z,1.25
2022-08-01T03:51:41.769Z,1.40
2022-08-01T03:54:49.688Z,1.48
2022-08-01T03:57:55.762Z,1.35
2022-08-01T04:00:59.973Z,1.55
2022-08-01T04:04:06.215Z,1.50
2022-08-01T04:07:32.011Z,1.50
2022-08-01T04:10:35.216Z,1.85
2022-08-01T04:13:39.946Z,1.50
2022-08-01T04:16:49.765Z,1.50
2022-08-01T04:20:01.628Z,1.70
2022-08-01T04:23:06.197Z,1.50
2022-08-01T04:26:27.207Z,1.80
2022-08-01T04:29:35.368Z,1.50
2022-08-01T04:32:49.786Z,1.55
2022-08-01T04:36:04.840Z,1.65
2022-08-01T04:39:08.477Z,1.70
2022-08-01T04:42:12.891Z,1.58
2022-08-01T04:45:18.176Z,1.62
2022-08-01T04:48:23.165Z,1.27
2022-08-01T04:51:26.489Z,1.45
2022-08-01T04:54:34.724Z,1.52
2022-08-01T04:57:40.130Z,1.42
2022-08-01T05:00:46.351Z,1.35
2022-08-01T05:03:51.597Z,1.50
2022-08-01T05:06:54.840Z,1.60
2022-08-01T05:09:57.318Z,1.33
2022-08-01T05:13:02.647Z,1.62
2022-08-01T05:16:05.468Z,1.60
2022-08-01T05:19:09.245Z,1.70
2022-08-01T05:22:11.903Z,1.23
2022-08-01T05:25:20.504Z,1.45
2022-08-01T05:28:36.735Z,1.60
2022-08-01T05:31:40.455Z,1.60
2022-08-01T05:34:43.680Z,1.65
2022-08-01T05:37:48.904Z,1.50
2022-08-01T05:40:57.399Z,1.40
2022-08-01T05:44:10.105Z,1.30
2022-08-01T05:47:12.669Z,1.90
2022-08-01T05:50:18.061Z,1.70
2022-08-01T05:53:23.259Z,1.27
2022-08-01T05:56:32.189Z,1.47
2022-08-01T05:59:35.480Z,1.10
2022-08-01T06:02:45.622Z,1.58
2022-08-01T06:05:58.003Z,1.50
2022-08-01T06:09:01.219Z,1.25
2022-08-01T06:12:04.939Z,1.30
2022-08-01T06:15:09.100Z,1.48
2022-08-01T06:18:18.674Z,1.23
2022-08-01T06:21:21.419Z,1.52
2022-08-01T06:24:24.926Z,1.42
2022-08-01T06:27:29.766Z,1.40
2022-08-01T06:30:32.946Z,1.33
2022-08-01T06:33:35.768Z,1.65
2022-08-01T06:36:41.755Z,1.40
2022-08-01T06:39:46.968Z,1.33
2022-08-01T06:42:53.959Z,1.45
2022-08-01T06:45:59.262Z,1.40
2022-08-01T06:49:02.408Z,1.65
2022-08-01T06:52:05.634Z,1.62
2022-08-01T06:55:09.591Z,1.40
2022-08-01T06:58:14.591Z,1.60
2022-08-01T07:01:20.332Z,1.63
2022-08-01T07:04:25.412Z,1.60
2022-08-01T07:07:28.438Z,1.40
2022-08-01T07:10:33.538Z,1.50
2022-08-01T07:13:45.455Z,1.33
2022-08-01T07:16:48.783Z,1.35
2022-08-01T07:19:52.114Z,1.27
2022-08-01T07:22:56.568Z,1.40
2022-08-01T07:26:03.649Z,1.52
2022-08-01T07:29:08.588Z,1.42
2022-08-01T07:32:11.427Z,1.50
2022-08-01T07:35:13.996Z,1.45
2022-08-01T07:38:21.743Z,1.50
2022-08-01T07:41:52.964Z,1.40
2022-08-01T07:44:47.326Z,1.20
2022-08-01T07:47:50.613Z,1.20
2022-08-01T07:50:53.940Z,1.48
2022-08-01T07:54:04.390Z,0.98
2022-08-01T07:57:08.343Z,1.10
2022-08-01T08:00:19.218Z,1.27
2022-08-01T08:03:24.382Z,1.27
2022-08-01T08:06:29.187Z,1.17
2022-08-01T08:09:31.971Z,1.10
2022-08-01T08:12:40.374Z,1.10
2022-08-01T08:15:43.539Z,1.20
2022-08-01T08:18:51.085Z,1.37
2022-08-01T08:21:53.931Z,1.30
2022-08-01T08:24:56.879Z,1.33
2022-08-01T08:28:03.929Z,1.45
2022-08-01T08:31:07.018Z,1.33
2022-08-01T08:34:12.718Z,1.50
2022-08-01T08:37:15.448Z,1.40
2022-08-01T08:40:18.575Z,1.48
2022-08-01T08:43:25.685Z,1.30
2022-08-01T08:46:29.404Z,1.48
2022-08-01T08:49:35.631Z,1.40
2022-08-01T08:52:40.708Z,1.30
2022-08-01T08:55:55.337Z,1.30
2022-08-01T08:59:01.171Z,1.10
2022-08-01T09:02:07.893Z,1.33
2022-08-01T09:05:16.207Z,1.42
2022-08-01T09:08:22.330Z,1.10
2022-08-01T09:11:25.963Z,1.20
2022-08-01T09:14:32.531Z,1.33
2022-08-01T09:17:45.060Z,1.30
2022-08-01T09:20:50.247Z,1.25
2022-08-01T09:23:55.403Z,1.27
2022-08-01T09:27:03.467Z,1.20
2022-08-01T09:30:19.534Z,1.40
2022-08-01T09:33:26.585Z,1.02
2022-08-01T09:36:52.285Z,1.30
2022-08-01T09:40:05.038Z,1.12
2022-08-01T09:43:16.584Z,1.35
2022-08-01T09:46:26.664Z,1.35
2022-08-01T09:49:49.707Z,1.40
2022-08-01T09:52:58.044Z,1.30
2022-08-01T09:56:12.213Z,1.40
2022-08-01T09:59:17.592Z,1.48
2022-08-01T10:02:38.589Z,1.30
2022-08-01T10:05:44.054Z,1.45
2022-08-01T10:08:52.564Z,1.40
2022-08-01T10:11:57.918Z,1.40
2022-08-01T10:15:01.260Z,1.90
2022-08-01T10:18:16.674Z,1.60
2022-08-01T10:21:50.891Z,1.70
2022-08-01T10:25:03.053Z,1.70
2022-08-01T10:28:24.282Z,1.50
2022-08-01T10:31:33.912Z,1.70
2022-08-01T10:34:39.448Z,1.50
2022-08-01T10:37:52.122Z,1.60
2022-08-01T10:40:58.079Z,1.70
2022-08-01T10:44:02.936Z,1.60
2022-08-01T10:47:26.735Z,1.60
2022-08-01T10:50:50.776Z,1.30
2022-08-01T10:53:56.092Z,1.60
2022-08-01T10:57:01.236Z,1.50
2022-08-01T11:00:05.574Z,1.50
2022-08-01T11:03:09.324Z,1.30
2022-08-01T11:06:18.801Z,1.60
2022-08-01T11:09:37.029Z,1.50
2022-08-01T11:12:44.277Z,1.55
2022-08-01T11:15:50.236Z,1.23
2022-08-01T11:18:53.475Z,1.40
2022-08-01T11:21:59.846Z,1.60
2022-08-01T11:25:04.894Z,1.60
2022-08-01T11:28:28.713Z,1.48
2022-08-01T11:31:37.409Z,1.70
2022-08-01T11:34:56.490Z,1.58
2022-08-01T11:38:29.405Z,1.60
2022-08-01T11:41:39.090Z,1.33
2022-08-01T11:44:52.434Z,1.60
2022-08-01T11:47:57.003Z,1.60
2022-08-01T11:51:02.607Z,1.67
2022-08-01T11:54:06.849Z,1.80
2022-08-01T11:57:15.518Z,1.42
2022-08-01T12:00:19.714Z,1.30
2022-08-01T12:03:33.137Z,1.40
2022-08-01T12:06:38.481Z,1.65
2022-08-01T12:09:47.930Z,1.50
2022-08-01T12:12:56.060Z,1.35
2022-08-01T12:16:10.837Z,1.60
2022-08-01T12:19:23.172Z,1.50
2022-08-01T12:22:27.624Z,1.58
2022-08-01T12:25:30.911Z,1.60
2022-08-01T12:28:40.928Z,1.70
2022-08-01T12:31:44.395Z,1.70
2022-08-01T12:34:50.502Z,1.40
2022-08-01T12:37:58.116Z,1.33
2022-08-01T12:41:04.889Z,1.25
2022-08-01T12:44:19.272Z,1.37
2022-08-01T12:47:23.316Z,1.20
2022-08-01T12:50:29.246Z,1.23
2022-08-01T12:53:41.251Z,1.60
2022-08-01T12:56:46.660Z,1.60
2022-08-01T12:59:54.553Z,2.00
2022-08-01T13:03:21.407Z,1.60
2022-08-01T13:06:24.986Z,1.37
2022-08-01T13:09:30.007Z,1.50
2022-08-01T13:12:42.214Z,1.60
2022-08-01T13:15:45.961Z,1.70
2022-08-01T13:18:55.810Z,1.70
2022-08-01T13:22:06.849Z,1.60
2022-08-01T13:25:20.837Z,1.60
2022-08-01T13:28:29.475Z,1.60
2022-08-01T13:31:37.044Z,1.55
2022-08-01T13:34:40.155Z,1.42
2022-08-01T13:37:46.892Z,1.37
2022-08-01T13:40:50.135Z,1.50
2022-08-01T13:43:58.673Z,1.40
2022-08-01T13:47:07.892Z,1.50
2022-08-01T13:50:19.403Z,1.45
2022-08-01T13:53:24.300Z,1.55
2022-08-01T13:56:29.634Z,1.60
2022-08-01T13:59:32.523Z,1.52
2022-08-01T14:02:36.146Z,1.48
2022-08-01T14:05:41.599Z,1.52
2022-08-01T14:08:46.960Z,1.62
2022-08-01T14:11:58.269Z,1.70
2022-08-01T14:15:12.419Z,1.40
2022-08-01T14:18:17.064Z,1.92
2022-08-01T14:21:22.958Z,1.77
2022-08-01T14:24:27.845Z,1.40
2022-08-01T14:27:33.103Z,1.50
2022-08-01T14:30:36.873Z,1.37
2022-08-01T14:33:49.032Z,1.60
2022-08-01T14:36:56.157Z,1.70
2022-08-01T14:40:08.664Z,1.80
2022-08-01T14:43:25.163Z,1.50
2022-08-01T14:49:41.814Z,1.37
2022-08-01T14:52:54.622Z,1.45
2022-08-01T14:56:02.097Z,1.35
2022-08-01T14:59:21.099Z,1.30
2022-08-01T15:02:26.621Z,1.73
2022-08-01T15:05:32.121Z,1.50
2022-08-01T15:08:35.905Z,1.40
2022-08-01T15:11:45.116Z,1.10
2022-08-01T15:14:55.334Z,1.40
2022-08-01T15:18:01.713Z,1.50
2022-08-01T15:21:17.214Z,1.60
2022-08-01T15:24:23.723Z,1.50
2022-08-01T15:27:29.511Z,1.40
2022-08-01T15:30:36.729Z,1.40
2022-08-01T15:36:44.141Z,1.50
2022-08-01T15:39:47.455Z,1.60
2022-08-01T15:42:50.142Z,1.50
2022-08-01T15:45:52.940Z,1.50
2022-08-01T15:48:56.291Z,1.40
2022-08-01T15:52:02.013Z,1.40
2022-08-01T15:55:05.392Z,1.42
2022-08-01T15:58:11.664Z,1.20
2022-08-01T16:01:14.836Z,1.23
2022-08-01T16:04:29.914Z,1.15
2022-08-01T16:07:59.388Z,1.17
2022-08-01T16:11:04.259Z,1.30
2022-08-01T16:14:07.189Z,1.23
2022-08-01T16:17:10.707Z,1.70
2022-08-01T16:20:15.304Z,1.40
2022-08-01T16:23:19.249Z,1.37
2022-08-01T16:26:27.428Z,1.30
2022-08-01T16:29:32.042Z,1.27
2022-08-01T16:32:46.921Z,1.40
2022-08-01T16:35:55.478Z,1.60
2022-08-01T16:39:02.431Z,1.40
2022-08-01T16:42:09.981Z,1.27
2022-08-01T16:45:18.149Z,1.45
2022-08-01T16:48:29.696Z,1.33
2022-08-01T16:51:42.079Z,1.40
2022-08-01T16:54:58.973Z,1.60
2022-08-01T16:58:03.635Z,1.35
2022-08-01T17:01:56.234Z,1.30
2022-08-01T17:04:31.874Z,1.33
2022-08-01T17:07:39.489Z,1.50
2022-08-01T17:10:42.025Z,1.20
2022-08-01T17:13:45.437Z,1.40
2022-08-01T17:16:48.508Z,1.55
2022-08-01T17:19:53.372Z,1.48
2022-08-01T17:22:58.690Z,1.60
2022-08-01T17:26:02.276Z,1.42
2022-08-01T17:29:09.015Z,1.40
2022-08-01T17:32:13.250Z,1.70
2022-08-01T17:35:18.225Z,1.33
2022-08-01T17:38:23.852Z,1.42
2022-08-01T17:41:28.976Z,1.62
2022-08-01T17:44:33.721Z,1.60
2022-08-01T17:47:50.915Z,1.50
2022-08-01T17:50:57.134Z,1.60
2022-08-01T17:54:01.725Z,1.30
2022-08-01T17:57:08.307Z,1.80
2022-08-01T18:00:14.047Z,1.50
2022-08-01T18:03:30.080Z,1.52
2022-08-01T18:06:37.024Z,1.67
2022-08-01T18:09:44.011Z,1.62
2022-08-01T18:12:48.956Z,1.80
2022-08-01T18:15:56.737Z,1.83
2022-08-01T18:19:05.728Z,1.60
2022-08-01T18:22:33.186Z,1.60
2022-08-01T18:25:37.929Z,1.77
2022-08-01T18:28:46.738Z,1.73
2022-08-01T18:31:55.803Z,1.65
2022-08-01T18:34:58.976Z,1.75
2022-08-01T18:38:03.714Z,1.75
2022-08-01T18:41:10.519Z,1.37
2022-08-01T18:44:16.155Z,1.73
2022-08-01T18:47:19.020Z,1.70
2022-08-01T18:50:22.456Z,1.62
2022-08-01T18:53:27.996Z,1.92
2022-08-01T18:56:36.062Z,1.85
2022-08-01T18:59:58.839Z,1.87
2022-08-01T19:03:01.548Z,1.80
2022-08-01T19:06:04.308Z,1.90
2022-08-01T19:09:09.566Z,1.83
2022-08-01T19:12:12.805Z,2.03
2022-08-01T19:15:17.600Z,2.40
2022-08-01T19:18:20.454Z,2.10
2022-08-01T19:21:25.563Z,1.98
2022-08-01T19:24:28.530Z,1.98
2022-08-01T19:30:53.907Z,2.20
2022-08-01T19:34:00.142Z,2.20
2022-08-01T19:37:03.704Z,2.28
2022-08-01T19:40:07.148Z,2.25
2022-08-01T19:43:14.601Z,2.20
2022-08-01T19:46:18.296Z,2.10
2022-08-01T19:49:25.513Z,2.12
2022-08-01T19:52:33.481Z,2.25
2022-08-01T19:55:43.517Z,2.08
2022-08-01T19:58:52.669Z,2.20
2022-08-01T20:02:04.471Z,2.08
2022-08-01T20:05:07.733Z,2.08
2022-08-01T20:08:11.945Z,1.95
2022-08-01T20:11:21.722Z,2.20
2022-08-01T20:14:26.727Z,2.00
2022-08-01T20:17:47.622Z,1.87
2022-08-01T20:20:51.765Z,2.20
2022-08-01T20:24:03.002Z,2.03
2022-08-01T20:27:07.165Z,2.35
2022-08-01T20:30:13.192Z,2.40
2022-08-01T20:33:21.701Z,2.03
2022-08-01T20:36:29.042Z,1.92
2022-08-01T20:39:51.535Z,1.70
2022-08-01T20:42:57.892Z,2.08
2022-08-01T20:46:00.913Z,1.70
2022-08-01T20:49:04.167Z,2.25
2022-08-01T20:52:11.564Z,2.20
2022-08-01T20:55:16.391Z,1.95
2022-08-01T20:58:27.632Z,1.67
2022-08-01T21:01:40.195Z,1.92
2022-08-01T21:05:10.948Z,2.00
2022-08-01T21:08:22.260Z,1.75
2022-08-01T21:11:30.928Z,2.00
2022-08-01T21:14:49.425Z,1.73
2022-08-01T21:18:02.621Z,2.03
2022-08-01T21:21:19.451Z,2.10
2022-08-01T21:24:27.052Z,1.83
2022-08-01T21:27:34.203Z,2.10
2022-08-01T21:30:37.504Z,1.95
2022-08-01T21:34:02.323Z,1.85
2022-08-01T21:37:09.074Z,2.30
2022-08-01T21:40:18.824Z,2.20
2022-08-01T21:43:22.412Z,2.30
2022-08-01T21:46:30.278Z,2.03
2022-08-01T21:49:32.835Z,2.35
2022-08-01T21:53:04.970Z,2.08
2022-08-01T21:56:34.122Z,2.08
2022-08-01T21:59:53.970Z,2.72
2022-08-01T22:03:16.211Z,2.58
2022-08-01T22:06:21.336Z,2.80
2022-08-01T22:09:24.275Z,2.25
2022-08-01T22:12:27.356Z,2.55
2022-08-01T22:15:44.707Z,2.80
2022-08-01T22:18:49.548Z,2.10
2022-08-01T22:21:54.766Z,2.67
2022-08-01T22:24:58.618Z,2.73
2022-08-01T22:28:06.335Z,2.45
2022-08-01T22:31:16.048Z,2.25
2022-08-01T22:34:19.363Z,2.97
2022-08-01T22:37:56.200Z,2.50
2022-08-01T22:40:50.191Z,2.47
2022-08-01T22:44:10.155Z,2.90
2022-08-01T22:47:25.250Z,2.80
2022-08-01T22:50:40.660Z,2.80
2022-08-01T22:53:54.886Z,2.35
2022-08-01T22:57:05.752Z,2.77
2022-08-01T23:00:12.929Z,2.92
2022-08-01T23:03:31.227Z,2.42
2022-08-01T23:06:36.573Z,2.70
2022-08-01T23:09:53.670Z,2.58
2022-08-01T23:13:01.261Z,2.20
2022-08-01T23:16:05.132Z,2.53
2022-08-01T23:19:10.054Z,2.45
2022-08-01T23:22:16.506Z,2.40
2022-08-01T23:25:25.707Z,2.45
2022-08-01T23:28:29.490Z,2.67
2022-08-01T23:32:02.838Z,2.72
2022-08-01T23:34:55.162Z,2.42
2022-08-01T23:38:02.750Z,2.25
2022-08-01T23:41:14.842Z,2.53
2022-08-01T23:44:19.460Z,2.40
2022-08-01T23:47:24.306Z,2.80
2022-08-01T23:50:27.244Z,2.70
2022-08-01T23:53:32.272Z,2.60
2022-08-01T23:56:37.318Z,2.58
2022-08-01T23:59:52.810Z,2.00
